Terminal Aerodrome Forecast
Issued by NWS

Home | Current Version | Previous Version | Text Only | Print | Product List | Glossary On
Versions: 1 2 3 4 5 6 7 8 9 10 11 12 13 14 15 16
000
FTUS41 KBOX 241731
TAFFMH
TAF
KFMH 241731Z 2418/2518 04004KT 3/4SM BR OVC003
     FM242300 03005KT 3SM -RA BR OVC003
     FM250800 33011G19KT 3SM BR VCSH OVC010
     FM251100 32011G26KT P6SM VCSH OVC020=

USA.gov is the U.S. government's official web portal to all federal, state and local government web resources and services.